sensor_id;sensor_type;location;lat;lon;timestamp;P1;durP1;ratioP1;P2;durP2;ratioP2
60730;SDS011;46580;52.114;11.674;2023-06-04T00:01:49;2.83;;;2.07;;
60730;SDS011;46580;52.114;11.674;2023-06-04T00:04:15;2.13;;;1.97;;
60730;SDS011;46580;52.114;11.674;2023-06-04T00:06:40;5.43;;;2.27;;
60730;SDS011;46580;52.114;11.674;2023-06-04T00:09:05;8.07;;;2.00;;
60730;SDS011;46580;52.114;11.674;2023-06-04T00:11:31;3.03;;;2.23;;
60730;SDS011;46580;52.114;11.674;2023-06-04T00:13:58;3.23;;;1.90;;
60730;SDS011;46580;52.114;11.674;2023-06-04T00:16:25;2.60;;;1.53;;
60730;SDS011;46580;52.114;11.674;2023-06-04T00:18:50;2.83;;;2.03;;
60730;SDS011;46580;52.114;11.674;2023-06-04T00:21:15;3.57;;;1.90;;
60730;SDS011;46580;52.114;11.674;2023-06-04T00:23:41;2.90;;;2.07;;
60730;SDS011;46580;52.114;11.674;2023-06-04T00:26:07;3.60;;;1.70;;
60730;SDS011;46580;52.114;11.674;2023-06-04T00:28:32;4.43;;;1.80;;
60730;SDS011;46580;52.114;11.674;2023-06-04T00:30:58;5.00;;;1.87;;
60730;SDS011;46580;52.114;11.674;2023-06-04T00:33:23;2.90;;;1.70;;
60730;SDS011;46580;52.114;11.674;2023-06-04T00:35:48;2.73;;;1.53;;
60730;SDS011;46580;52.114;11.674;2023-06-04T00:38:14;3.10;;;1.90;;
60730;SDS011;46580;52.114;11.674;2023-06-04T00:40:39;3.37;;;2.00;;
60730;SDS011;46580;52.114;11.674;2023-06-04T00:43:05;6.33;;;2.20;;
60730;SDS011;46580;52.114;11.674;2023-06-04T00:45:30;3.40;;;1.90;;
60730;SDS011;46580;52.114;11.674;2023-06-04T00:47:56;3.10;;;2.03;;
60730;SDS011;46580;52.114;11.674;2023-06-04T00:50:22;3.13;;;1.60;;
60730;SDS011;46580;52.114;11.674;2023-06-04T00:52:49;4.00;;;2.40;;
60730;SDS011;46580;52.114;11.674;2023-06-04T00:55:15;4.47;;;2.13;;
60730;SDS011;46580;52.114;11.674;2023-06-04T00:57:43;3.03;;;2.17;;
60730;SDS011;46580;52.114;11.674;2023-06-04T01:00:08;6.23;;;2.20;;
60730;SDS011;46580;52.114;11.674;2023-06-04T01:02:35;4.30;;;2.23;;
60730;SDS011;46580;52.114;11.674;2023-06-04T01:07:55;7.30;;;2.10;;
60730;SDS011;46580;52.114;11.674;2023-06-04T01:10:22;4.13;;;2.30;;
60730;SDS011;46580;52.114;11.674;2023-06-04T01:12:47;7.83;;;2.40;;
60730;SDS011;46580;52.114;11.674;2023-06-04T01:15:13;7.60;;;2.77;;
60730;SDS011;46580;52.114;11.674;2023-06-04T01:17:39;2.33;;;1.80;;
60730;SDS011;46580;52.114;11.674;2023-06-04T01:20:13;5.17;;;2.33;;
60730;SDS011;46580;52.114;11.674;2023-06-04T01:25:37;5.50;;;2.30;;
60730;SDS011;46580;52.114;11.674;2023-06-04T01:28:09;6.80;;;2.57;;
60730;SDS011;46580;52.114;11.674;2023-06-04T01:30:36;9.07;;;2.97;;
60730;SDS011;46580;52.114;11.674;2023-06-04T01:33:17;6.43;;;2.23;;
60730;SDS011;46580;52.114;11.674;2023-06-04T01:35:43;5.03;;;2.50;;
60730;SDS011;46580;52.114;11.674;2023-06-04T01:38:09;3.03;;;1.90;;
60730;SDS011;46580;52.114;11.674;2023-06-04T01:40:35;3.40;;;2.10;;
60730;SDS011;46580;52.114;11.674;2023-06-04T01:43:00;3.83;;;2.10;;
60730;SDS011;46580;52.114;11.674;2023-06-04T01:45:26;5.40;;;1.90;;
60730;SDS011;46580;52.114;11.674;2023-06-04T01:47:53;3.77;;;2.17;;
60730;SDS011;46580;52.114;11.674;2023-06-04T01:50:19;3.03;;;1.80;;
60730;SDS011;46580;52.114;11.674;2023-06-04T01:52:44;4.43;;;2.07;;
60730;SDS011;46580;52.114;11.674;2023-06-04T01:55:10;4.53;;;2.00;;
60730;SDS011;46580;52.114;11.674;2023-06-04T01:57:38;4.63;;;2.33;;
60730;SDS011;46580;52.114;11.674;2023-06-04T02:00:05;4.60;;;1.40;;
60730;SDS011;46580;52.114;11.674;2023-06-04T02:02:36;2.90;;;1.70;;
60730;SDS011;46580;52.114;11.674;2023-06-04T02:05:02;4.87;;;2.00;;
60730;SDS011;46580;52.114;11.674;2023-06-04T02:07:34;1.93;;;1.67;;
60730;SDS011;46580;52.114;11.674;2023-06-04T02:10:03;6.53;;;2.57;;
60730;SDS011;46580;52.114;11.674;2023-06-04T02:12:30;3.17;;;1.90;;
60730;SDS011;46580;52.114;11.674;2023-06-04T02:14:56;3.13;;;2.17;;
60730;SDS011;46580;52.114;11.674;2023-06-04T02:17:21;3.17;;;1.93;;
60730;SDS011;46580;52.114;11.674;2023-06-04T02:19:47;4.70;;;1.80;;
60730;SDS011;46580;52.114;11.674;2023-06-04T02:22:19;3.13;;;1.93;;
60730;SDS011;46580;52.114;11.674;2023-06-04T02:24:45;4.93;;;1.83;;
60730;SDS011;46580;52.114;11.674;2023-06-04T02:27:11;3.60;;;1.87;;
60730;SDS011;46580;52.114;11.674;2023-06-04T02:29:37;4.67;;;2.00;;
60730;SDS011;46580;52.114;11.674;2023-06-04T02:32:03;4.07;;;2.10;;
60730;SDS011;46580;52.114;11.674;2023-06-04T02:34:29;6.57;;;1.97;;
60730;SDS011;46580;52.114;11.674;2023-06-04T02:36:55;2.97;;;1.97;;
60730;SDS011;46580;52.114;11.674;2023-06-04T02:39:21;3.33;;;2.10;;
60730;SDS011;46580;52.114;11.674;2023-06-04T02:41:46;5.87;;;1.80;;
60730;SDS011;46580;52.114;11.674;2023-06-04T02:44:12;3.50;;;1.77;;
60730;SDS011;46580;52.114;11.674;2023-06-04T02:46:38;2.50;;;1.80;;
60730;SDS011;46580;52.114;11.674;2023-06-04T02:49:03;2.83;;;1.70;;
60730;SDS011;46580;52.114;11.674;2023-06-04T02:51:29;2.47;;;1.77;;
60730;SDS011;46580;52.114;11.674;2023-06-04T02:53:54;4.57;;;1.90;;
60730;SDS011;46580;52.114;11.674;2023-06-04T02:56:20;5.33;;;2.13;;
60730;SDS011;46580;52.114;11.674;2023-06-04T02:58:50;3.97;;;1.90;;
60730;SDS011;46580;52.114;11.674;2023-06-04T03:01:19;2.80;;;1.63;;
60730;SDS011;46580;52.114;11.674;2023-06-04T03:03:48;5.33;;;2.10;;
60730;SDS011;46580;52.114;11.674;2023-06-04T03:06:14;3.00;;;1.90;;
60730;SDS011;46580;52.114;11.674;2023-06-04T03:08:41;4.47;;;2.13;;
60730;SDS011;46580;52.114;11.674;2023-06-04T03:11:06;3.67;;;2.07;;
60730;SDS011;46580;52.114;11.674;2023-06-04T03:13:32;6.17;;;2.13;;
60730;SDS011;46580;52.114;11.674;2023-06-04T03:15:57;3.83;;;2.13;;
60730;SDS011;46580;52.114;11.674;2023-06-04T03:18:26;4.27;;;1.80;;
60730;SDS011;46580;52.114;11.674;2023-06-04T03:20:51;3.60;;;2.00;;
60730;SDS011;46580;52.114;11.674;2023-06-04T03:23:18;6.27;;;2.30;;
60730;SDS011;46580;52.114;11.674;2023-06-04T03:25:44;3.87;;;2.03;;
60730;SDS011;46580;52.114;11.674;2023-06-04T03:28:09;4.43;;;2.50;;
60730;SDS011;46580;52.114;11.674;2023-06-04T03:30:34;4.90;;;1.80;;
60730;SDS011;46580;52.114;11.674;2023-06-04T03:33:00;3.63;;;2.10;;
60730;SDS011;46580;52.114;11.674;2023-06-04T03:35:25;3.70;;;1.70;;
60730;SDS011;46580;52.114;11.674;2023-06-04T03:37:50;4.00;;;1.97;;
60730;SDS011;46580;52.114;11.674;2023-06-04T03:40:16;6.07;;;2.00;;
60730;SDS011;46580;52.114;11.674;2023-06-04T03:42:41;6.83;;;2.20;;
60730;SDS011;46580;52.114;11.674;2023-06-04T03:45:07;3.77;;;1.80;;
60730;SDS011;46580;52.114;11.674;2023-06-04T03:47:33;4.13;;;1.77;;
60730;SDS011;46580;52.114;11.674;2023-06-04T03:49:58;3.47;;;1.73;;
60730;SDS011;46580;52.114;11.674;2023-06-04T03:52:24;4.93;;;2.00;;
60730;SDS011;46580;52.114;11.674;2023-06-04T03:54:49;4.23;;;2.20;;
60730;SDS011;46580;52.114;11.674;2023-06-04T03:57:14;2.97;;;1.77;;
60730;SDS011;46580;52.114;11.674;2023-06-04T03:59:40;5.37;;;2.30;;
60730;SDS011;46580;52.114;11.674;2023-06-04T04:02:05;4.20;;;1.73;;
60730;SDS011;46580;52.114;11.674;2023-06-04T04:04:31;4.07;;;2.03;;
60730;SDS011;46580;52.114;11.674;2023-06-04T04:06:58;5.90;;;2.00;;
60730;SDS011;46580;52.114;11.674;2023-06-04T04:09:25;3.77;;;1.73;;
60730;SDS011;46580;52.114;11.674;2023-06-04T04:11:51;6.07;;;1.90;;
60730;SDS011;46580;52.114;11.674;2023-06-04T04:14:16;3.40;;;2.30;;
60730;SDS011;46580;52.114;11.674;2023-06-04T04:16:42;4.93;;;1.97;;
60730;SDS011;46580;52.114;11.674;2023-06-04T04:19:07;4.50;;;2.10;;
60730;SDS011;46580;52.114;11.674;2023-06-04T04:21:33;3.30;;;1.60;;
60730;SDS011;46580;52.114;11.674;2023-06-04T04:24:01;7.07;;;2.13;;
60730;SDS011;46580;52.114;11.674;2023-06-04T04:26:27;3.03;;;2.03;;
60730;SDS011;46580;52.114;11.674;2023-06-04T04:28:53;3.03;;;1.93;;
60730;SDS011;46580;52.114;11.674;2023-06-04T04:31:23;3.37;;;2.00;;
60730;SDS011;46580;52.114;11.674;2023-06-04T04:33:49;3.07;;;1.97;;
60730;SDS011;46580;52.114;11.674;2023-06-04T04:36:16;2.70;;;1.93;;
60730;SDS011;46580;52.114;11.674;2023-06-04T04:38:43;5.33;;;2.30;;
60730;SDS011;46580;52.114;11.674;2023-06-04T04:41:10;6.73;;;1.90;;
60730;SDS011;46580;52.114;11.674;2023-06-04T04:43:37;4.73;;;2.20;;
60730;SDS011;46580;52.114;11.674;2023-06-04T04:46:04;6.03;;;1.90;;
60730;SDS011;46580;52.114;11.674;2023-06-04T04:48:30;2.93;;;1.97;;
60730;SDS011;46580;52.114;11.674;2023-06-04T04:50:56;2.97;;;1.90;;
60730;SDS011;46580;52.114;11.674;2023-06-04T04:53:21;2.37;;;1.50;;
60730;SDS011;46580;52.114;11.674;2023-06-04T04:55:46;3.27;;;1.67;;
60730;SDS011;46580;52.114;11.674;2023-06-04T04:58:12;2.93;;;1.40;;
60730;SDS011;46580;52.114;11.674;2023-06-04T05:00:38;12.17;;;1.80;;
60730;SDS011;46580;52.114;11.674;2023-06-04T05:03:03;3.77;;;1.90;;
60730;SDS011;46580;52.114;11.674;2023-06-04T05:05:29;2.73;;;1.63;;
60730;SDS011;46580;52.114;11.674;2023-06-04T05:07:55;3.87;;;1.90;;
60730;SDS011;46580;52.114;11.674;2023-06-04T05:10:20;2.97;;;1.70;;
60730;SDS011;46580;52.114;11.674;2023-06-04T05:12:55;3.13;;;1.67;;
60730;SDS011;46580;52.114;11.674;2023-06-04T05:15:25;2.17;;;1.70;;
60730;SDS011;46580;52.114;11.674;2023-06-04T05:17:51;2.97;;;1.93;;
60730;SDS011;46580;52.114;11.674;2023-06-04T05:20:17;4.20;;;1.50;;
60730;SDS011;46580;52.114;11.674;2023-06-04T05:22:43;4.63;;;1.80;;
60730;SDS011;46580;52.114;11.674;2023-06-04T05:25:10;2.33;;;1.47;;
60730;SDS011;46580;52.114;11.674;2023-06-04T05:27:36;4.23;;;1.60;;
60730;SDS011;46580;52.114;11.674;2023-06-04T05:30:05;2.67;;;1.60;;
60730;SDS011;46580;52.114;11.674;2023-06-04T05:32:32;3.27;;;1.53;;
60730;SDS011;46580;52.114;11.674;2023-06-04T05:34:57;2.10;;;1.50;;
60730;SDS011;46580;52.114;11.674;2023-06-04T05:37:26;4.97;;;1.50;;
60730;SDS011;46580;52.114;11.674;2023-06-04T05:39:52;3.30;;;1.67;;
60730;SDS011;46580;52.114;11.674;2023-06-04T05:42:18;2.00;;;1.50;;
60730;SDS011;46580;52.114;11.674;2023-06-04T05:44:44;3.13;;;1.70;;
60730;SDS011;46580;52.114;11.674;2023-06-04T05:47:09;2.50;;;1.60;;
60730;SDS011;46580;52.114;11.674;2023-06-04T05:49:35;2.60;;;1.47;;
60730;SDS011;46580;52.114;11.674;2023-06-04T05:52:00;2.73;;;1.80;;
60730;SDS011;46580;52.114;11.674;2023-06-04T05:54:26;3.00;;;2.10;;
60730;SDS011;46580;52.114;11.674;2023-06-04T05:56:52;12.90;;;1.97;;
60730;SDS011;46580;52.114;11.674;2023-06-04T05:59:17;6.23;;;1.83;;
60730;SDS011;46580;52.114;11.674;2023-06-04T06:01:42;3.83;;;1.80;;
60730;SDS011;46580;52.114;11.674;2023-06-04T06:04:08;3.80;;;1.93;;
60730;SDS011;46580;52.114;11.674;2023-06-04T06:06:34;2.93;;;1.90;;
60730;SDS011;46580;52.114;11.674;2023-06-04T06:09:00;4.20;;;2.13;;
60730;SDS011;46580;52.114;11.674;2023-06-04T06:11:26;3.90;;;2.20;;
60730;SDS011;46580;52.114;11.674;2023-06-04T06:13:51;5.93;;;2.20;;
60730;SDS011;46580;52.114;11.674;2023-06-04T06:16:17;2.93;;;2.10;;
60730;SDS011;46580;52.114;11.674;2023-06-04T06:18:43;3.40;;;1.77;;
60730;SDS011;46580;52.114;11.674;2023-06-04T06:21:09;7.77;;;2.53;;
60730;SDS011;46580;52.114;11.674;2023-06-04T06:23:34;6.03;;;2.73;;
60730;SDS011;46580;52.114;11.674;2023-06-04T06:26:00;8.83;;;2.97;;
60730;SDS011;46580;52.114;11.674;2023-06-04T06:28:27;7.27;;;3.00;;
60730;SDS011;46580;52.114;11.674;2023-06-04T06:30:52;3.33;;;2.43;;
60730;SDS011;46580;52.114;11.674;2023-06-04T06:33:18;4.07;;;2.70;;
60730;SDS011;46580;52.114;11.674;2023-06-04T06:35:46;2.63;;;2.30;;
60730;SDS011;46580;52.114;11.674;2023-06-04T06:38:12;7.73;;;2.57;;
60730;SDS011;46580;52.114;11.674;2023-06-04T06:40:40;3.97;;;2.00;;
60730;SDS011;46580;52.114;11.674;2023-06-04T06:43:06;6.27;;;2.23;;
60730;SDS011;46580;52.114;11.674;2023-06-04T06:45:31;4.33;;;2.13;;
60730;SDS011;46580;52.114;11.674;2023-06-04T06:47:56;3.00;;;2.13;;
60730;SDS011;46580;52.114;11.674;2023-06-04T06:50:22;3.70;;;1.83;;
60730;SDS011;46580;52.114;11.674;2023-06-04T06:52:47;2.70;;;1.70;;
60730;SDS011;46580;52.114;11.674;2023-06-04T06:55:13;2.37;;;1.70;;
60730;SDS011;46580;52.114;11.674;2023-06-04T06:57:38;4.33;;;1.83;;
60730;SDS011;46580;52.114;11.674;2023-06-04T07:00:04;2.10;;;1.67;;
60730;SDS011;46580;52.114;11.674;2023-06-04T07:02:31;2.27;;;1.57;;
60730;SDS011;46580;52.114;11.674;2023-06-04T07:04:56;2.40;;;1.83;;
60730;SDS011;46580;52.114;11.674;2023-06-04T07:07:22;4.50;;;1.90;;
60730;SDS011;46580;52.114;11.674;2023-06-04T07:09:47;1.87;;;1.47;;
60730;SDS011;46580;52.114;11.674;2023-06-04T07:12:13;4.97;;;1.40;;
60730;SDS011;46580;52.114;11.674;2023-06-04T07:14:38;1.80;;;1.40;;
60730;SDS011;46580;52.114;11.674;2023-06-04T07:17:03;4.07;;;1.60;;
60730;SDS011;46580;52.114;11.674;2023-06-04T07:19:29;3.47;;;1.50;;
60730;SDS011;46580;52.114;11.674;2023-06-04T07:21:54;3.37;;;1.50;;
60730;SDS011;46580;52.114;11.674;2023-06-04T07:24:20;2.33;;;1.50;;
60730;SDS011;46580;52.114;11.674;2023-06-04T07:26:46;1.77;;;1.20;;
60730;SDS011;46580;52.114;11.674;2023-06-04T07:29:12;2.93;;;1.30;;
60730;SDS011;46580;52.114;11.674;2023-06-04T07:31:37;2.40;;;1.37;;
60730;SDS011;46580;52.114;11.674;2023-06-04T07:34:03;5.53;;;1.73;;
60730;SDS011;46580;52.114;11.674;2023-06-04T07:36:28;3.27;;;1.10;;
60730;SDS011;46580;52.114;11.674;2023-06-04T07:38:54;3.53;;;1.00;;
60730;SDS011;46580;52.114;11.674;2023-06-04T07:41:19;1.60;;;1.00;;
60730;SDS011;46580;52.114;11.674;2023-06-04T07:43:45;2.30;;;0.97;;
60730;SDS011;46580;52.114;11.674;2023-06-04T07:46:10;3.53;;;1.20;;
60730;SDS011;46580;52.114;11.674;2023-06-04T07:48:36;2.33;;;1.00;;
60730;SDS011;46580;52.114;11.674;2023-06-04T07:51:01;2.93;;;1.30;;
60730;SDS011;46580;52.114;11.674;2023-06-04T07:53:29;1.87;;;0.90;;
60730;SDS011;46580;52.114;11.674;2023-06-04T07:55:56;1.93;;;1.10;;
60730;SDS011;46580;52.114;11.674;2023-06-04T07:58:23;2.47;;;1.37;;
60730;SDS011;46580;52.114;11.674;2023-06-04T08:00:48;2.77;;;1.10;;
60730;SDS011;46580;52.114;11.674;2023-06-04T08:03:14;1.83;;;1.10;;
60730;SDS011;46580;52.114;11.674;2023-06-04T08:05:43;1.03;;;0.87;;
60730;SDS011;46580;52.114;11.674;2023-06-04T08:08:08;2.07;;;0.90;;
60730;SDS011;46580;52.114;11.674;2023-06-04T08:10:34;1.30;;;0.80;;
60730;SDS011;46580;52.114;11.674;2023-06-04T08:12:59;1.27;;;0.70;;
60730;SDS011;46580;52.114;11.674;2023-06-04T08:15:24;1.43;;;0.80;;
60730;SDS011;46580;52.114;11.674;2023-06-04T08:17:50;9.43;;;1.00;;
60730;SDS011;46580;52.114;11.674;2023-06-04T08:20:15;1.63;;;0.80;;
60730;SDS011;46580;52.114;11.674;2023-06-04T08:22:41;1.50;;;0.80;;
60730;SDS011;46580;52.114;11.674;2023-06-04T08:25:07;2.23;;;0.73;;
60730;SDS011;46580;52.114;11.674;2023-06-04T08:27:34;1.33;;;0.70;;
60730;SDS011;46580;52.114;11.674;2023-06-04T08:29:59;1.53;;;0.90;;
60730;SDS011;46580;52.114;11.674;2023-06-04T08:32:25;0.77;;;0.63;;
60730;SDS011;46580;52.114;11.674;2023-06-04T08:34:50;1.87;;;1.10;;
60730;SDS011;46580;52.114;11.674;2023-06-04T08:37:16;0.90;;;0.60;;
60730;SDS011;46580;52.114;11.674;2023-06-04T08:39:42;1.80;;;0.53;;
60730;SDS011;46580;52.114;11.674;2023-06-04T08:42:09;1.43;;;0.87;;
60730;SDS011;46580;52.114;11.674;2023-06-04T08:44:46;1.70;;;0.47;;
60730;SDS011;46580;52.114;11.674;2023-06-04T08:47:16;1.47;;;0.80;;
60730;SDS011;46580;52.114;11.674;2023-06-04T08:49:44;0.80;;;0.60;;
60730;SDS011;46580;52.114;11.674;2023-06-04T08:52:16;2.23;;;0.60;;
60730;SDS011;46580;52.114;11.674;2023-06-04T08:54:41;2.33;;;0.90;;
60730;SDS011;46580;52.114;11.674;2023-06-04T08:57:07;1.70;;;0.70;;
60730;SDS011;46580;52.114;11.674;2023-06-04T08:59:34;1.13;;;0.73;;
60730;SDS011;46580;52.114;11.674;2023-06-04T09:02:00;1.40;;;0.63;;
60730;SDS011;46580;52.114;11.674;2023-06-04T09:04:26;1.57;;;0.73;;
60730;SDS011;46580;52.114;11.674;2023-06-04T09:06:53;1.93;;;0.80;;
60730;SDS011;46580;52.114;11.674;2023-06-04T09:09:19;1.20;;;0.60;;
60730;SDS011;46580;52.114;11.674;2023-06-04T09:11:54;6.07;;;1.10;;
60730;SDS011;46580;52.114;11.674;2023-06-04T09:14:20;4.13;;;1.37;;
60730;SDS011;46580;52.114;11.674;2023-06-04T09:16:46;2.20;;;1.07;;
60730;SDS011;46580;52.114;11.674;2023-06-04T09:19:16;2.63;;;0.70;;
60730;SDS011;46580;52.114;11.674;2023-06-04T09:22:00;5.37;;;0.90;;
60730;SDS011;46580;52.114;11.674;2023-06-04T09:24:39;4.63;;;0.87;;
60730;SDS011;46580;52.114;11.674;2023-06-04T09:27:15;2.97;;;0.70;;
60730;SDS011;46580;52.114;11.674;2023-06-04T09:29:51;2.63;;;0.70;;
60730;SDS011;46580;52.114;11.674;2023-06-04T09:32:24;1.13;;;0.67;;
60730;SDS011;46580;52.114;11.674;2023-06-04T09:34:51;5.17;;;0.83;;
60730;SDS011;46580;52.114;11.674;2023-06-04T09:37:18;0.80;;;0.57;;
60730;SDS011;46580;52.114;11.674;2023-06-04T09:39:53;2.97;;;0.80;;
60730;SDS011;46580;52.114;11.674;2023-06-04T09:42:19;2.10;;;0.83;;
60730;SDS011;46580;52.114;11.674;2023-06-04T09:44:45;2.57;;;0.70;;
60730;SDS011;46580;52.114;11.674;2023-06-04T09:47:11;5.27;;;0.73;;
60730;SDS011;46580;52.114;11.674;2023-06-04T09:49:40;4.50;;;1.00;;
60730;SDS011;46580;52.114;11.674;2023-06-04T09:52:06;1.10;;;0.67;;
60730;SDS011;46580;52.114;11.674;2023-06-04T09:54:35;6.17;;;1.03;;
60730;SDS011;46580;52.114;11.674;2023-06-04T09:57:04;1.33;;;0.67;;
60730;SDS011;46580;52.114;11.674;2023-06-04T09:59:38;1.83;;;0.63;;
60730;SDS011;46580;52.114;11.674;2023-06-04T10:02:05;0.90;;;0.60;;
60730;SDS011;46580;52.114;11.674;2023-06-04T10:04:34;1.83;;;1.03;;
60730;SDS011;46580;52.114;11.674;2023-06-04T10:07:02;1.53;;;0.60;;
60730;SDS011;46580;52.114;11.674;2023-06-04T10:09:30;1.80;;;0.70;;
60730;SDS011;46580;52.114;11.674;2023-06-04T10:11:56;2.17;;;0.70;;
60730;SDS011;46580;52.114;11.674;2023-06-04T10:14:27;2.97;;;0.77;;
60730;SDS011;46580;52.114;11.674;2023-06-04T10:17:06;1.50;;;0.70;;
60730;SDS011;46580;52.114;11.674;2023-06-04T10:19:35;0.83;;;0.73;;
60730;SDS011;46580;52.114;11.674;2023-06-04T10:22:03;1.07;;;0.60;;
60730;SDS011;46580;52.114;11.674;2023-06-04T10:24:29;2.00;;;1.07;;
60730;SDS011;46580;52.114;11.674;2023-06-04T10:26:58;1.10;;;0.80;;
60730;SDS011;46580;52.114;11.674;2023-06-04T10:29:23;2.40;;;1.37;;
60730;SDS011;46580;52.114;11.674;2023-06-04T10:31:54;1.37;;;0.80;;
60730;SDS011;46580;52.114;11.674;2023-06-04T10:34:20;1.97;;;0.60;;
60730;SDS011;46580;52.114;11.674;2023-06-04T10:36:45;3.57;;;0.80;;
60730;SDS011;46580;52.114;11.674;2023-06-04T10:39:11;4.00;;;1.27;;
60730;SDS011;46580;52.114;11.674;2023-06-04T10:41:37;0.70;;;0.47;;
60730;SDS011;46580;52.114;11.674;2023-06-04T10:44:03;1.57;;;0.60;;
60730;SDS011;46580;52.114;11.674;2023-06-04T10:46:39;1.43;;;0.60;;
60730;SDS011;46580;52.114;11.674;2023-06-04T10:49:07;0.67;;;0.53;;
60730;SDS011;46580;52.114;11.674;2023-06-04T10:51:35;1.57;;;0.73;;
60730;SDS011;46580;52.114;11.674;2023-06-04T10:54:03;1.00;;;0.67;;
60730;SDS011;46580;52.114;11.674;2023-06-04T10:56:29;1.00;;;0.57;;
60730;SDS011;46580;52.114;11.674;2023-06-04T10:59:00;2.17;;;0.70;;
60730;SDS011;46580;52.114;11.674;2023-06-04T11:01:37;0.90;;;0.50;;
60730;SDS011;46580;52.114;11.674;2023-06-04T11:04:02;0.77;;;0.70;;
60730;SDS011;46580;52.114;11.674;2023-06-04T11:06:28;3.17;;;0.70;;
60730;SDS011;46580;52.114;11.674;2023-06-04T11:09:03;5.13;;;0.73;;
60730;SDS011;46580;52.114;11.674;2023-06-04T11:11:30;1.23;;;0.80;;
60730;SDS011;46580;52.114;11.674;2023-06-04T11:13:55;2.60;;;0.87;;
60730;SDS011;46580;52.114;11.674;2023-06-04T11:16:32;3.07;;;1.03;;
60730;SDS011;46580;52.114;11.674;2023-06-04T11:18:57;1.97;;;0.80;;
60730;SDS011;46580;52.114;11.674;2023-06-04T11:21:24;2.83;;;0.90;;
60730;SDS011;46580;52.114;11.674;2023-06-04T11:23:54;2.00;;;0.93;;
60730;SDS011;46580;52.114;11.674;2023-06-04T11:26:20;1.50;;;0.77;;
60730;SDS011;46580;52.114;11.674;2023-06-04T11:28:48;2.50;;;0.90;;
60730;SDS011;46580;52.114;11.674;2023-06-04T11:31:14;4.17;;;1.00;;
60730;SDS011;46580;52.114;11.674;2023-06-04T11:33:46;2.93;;;0.83;;
60730;SDS011;46580;52.114;11.674;2023-06-04T11:36:22;1.23;;;0.67;;
60730;SDS011;46580;52.114;11.674;2023-06-04T11:38:59;1.87;;;0.80;;
60730;SDS011;46580;52.114;11.674;2023-06-04T11:41:31;4.43;;;1.07;;
60730;SDS011;46580;52.114;11.674;2023-06-04T11:44:02;1.00;;;0.77;;
60730;SDS011;46580;52.114;11.674;2023-06-04T11:46:29;1.63;;;1.10;;
60730;SDS011;46580;52.114;11.674;2023-06-04T11:48:57;3.10;;;1.00;;
60730;SDS011;46580;52.114;11.674;2023-06-04T11:51:23;4.83;;;0.90;;
60730;SDS011;46580;52.114;11.674;2023-06-04T11:53:48;1.70;;;0.70;;
60730;SDS011;46580;52.114;11.674;2023-06-04T11:56:16;1.97;;;0.47;;
60730;SDS011;46580;52.114;11.674;2023-06-04T11:58:42;4.33;;;0.87;;
60730;SDS011;46580;52.114;11.674;2023-06-04T12:01:08;2.90;;;0.80;;
60730;SDS011;46580;52.114;11.674;2023-06-04T12:03:38;2.10;;;0.80;;
60730;SDS011;46580;52.114;11.674;2023-06-04T12:06:09;4.20;;;0.70;;
60730;SDS011;46580;52.114;11.674;2023-06-04T12:08:50;3.77;;;0.87;;
60730;SDS011;46580;52.114;11.674;2023-06-04T12:11:30;3.83;;;0.80;;
60730;SDS011;46580;52.114;11.674;2023-06-04T12:13:58;3.60;;;1.27;;
60730;SDS011;46580;52.114;11.674;2023-06-04T12:16:25;1.80;;;0.60;;
60730;SDS011;46580;52.114;11.674;2023-06-04T12:18:51;3.10;;;0.73;;
60730;SDS011;46580;52.114;11.674;2023-06-04T12:21:18;0.97;;;0.63;;
60730;SDS011;46580;52.114;11.674;2023-06-04T12:23:51;4.87;;;1.00;;
60730;SDS011;46580;52.114;11.674;2023-06-04T12:26:23;1.47;;;1.00;;
60730;SDS011;46580;52.114;11.674;2023-06-04T12:29:01;5.43;;;0.90;;
60730;SDS011;46580;52.114;11.674;2023-06-04T12:31:27;0.93;;;0.63;;
60730;SDS011;46580;52.114;11.674;2023-06-04T12:33:56;1.90;;;0.73;;
60730;SDS011;46580;52.114;11.674;2023-06-04T12:36:23;3.13;;;0.87;;
60730;SDS011;46580;52.114;11.674;2023-06-04T12:38:48;2.47;;;0.67;;
60730;SDS011;46580;52.114;11.674;2023-06-04T12:41:14;3.27;;;0.90;;
60730;SDS011;46580;52.114;11.674;2023-06-04T12:43:39;2.03;;;0.70;;
60730;SDS011;46580;52.114;11.674;2023-06-04T12:46:04;2.53;;;0.90;;
60730;SDS011;46580;52.114;11.674;2023-06-04T12:48:30;2.33;;;1.00;;
60730;SDS011;46580;52.114;11.674;2023-06-04T12:50:55;1.63;;;0.97;;
60730;SDS011;46580;52.114;11.674;2023-06-04T12:53:21;2.30;;;0.70;;
60730;SDS011;46580;52.114;11.674;2023-06-04T12:55:46;1.87;;;0.97;;
60730;SDS011;46580;52.114;11.674;2023-06-04T12:58:11;7.20;;;0.90;;
60730;SDS011;46580;52.114;11.674;2023-06-04T13:00:37;2.57;;;1.00;;
60730;SDS011;46580;52.114;11.674;2023-06-04T13:03:02;1.17;;;0.77;;
60730;SDS011;46580;52.114;11.674;2023-06-04T13:05:27;1.77;;;0.80;;
60730;SDS011;46580;52.114;11.674;2023-06-04T13:07:53;0.90;;;0.80;;
60730;SDS011;46580;52.114;11.674;2023-06-04T13:10:18;0.90;;;0.70;;
60730;SDS011;46580;52.114;11.674;2023-06-04T13:12:43;2.97;;;1.00;;
60730;SDS011;46580;52.114;11.674;2023-06-04T13:15:09;1.43;;;0.90;;
60730;SDS011;46580;52.114;11.674;2023-06-04T13:17:37;2.03;;;0.60;;
60730;SDS011;46580;52.114;11.674;2023-06-04T13:20:03;3.53;;;1.00;;
60730;SDS011;46580;52.114;11.674;2023-06-04T13:22:28;0.73;;;0.60;;
60730;SDS011;46580;52.114;11.674;2023-06-04T13:24:54;1.00;;;0.70;;
60730;SDS011;46580;52.114;11.674;2023-06-04T13:27:19;1.17;;;1.00;;
60730;SDS011;46580;52.114;11.674;2023-06-04T13:29:45;1.23;;;0.80;;
60730;SDS011;46580;52.114;11.674;2023-06-04T13:32:10;1.57;;;0.67;;
60730;SDS011;46580;52.114;11.674;2023-06-04T13:34:36;6.17;;;0.93;;
60730;SDS011;46580;52.114;11.674;2023-06-04T13:37:01;1.57;;;0.97;;
60730;SDS011;46580;52.114;11.674;2023-06-04T13:39:27;1.27;;;0.73;;
60730;SDS011;46580;52.114;11.674;2023-06-04T13:41:52;2.67;;;1.27;;
60730;SDS011;46580;52.114;11.674;2023-06-04T13:44:18;1.67;;;1.00;;
60730;SDS011;46580;52.114;11.674;2023-06-04T13:46:44;1.17;;;0.70;;
60730;SDS011;46580;52.114;11.674;2023-06-04T13:49:09;0.77;;;0.70;;
60730;SDS011;46580;52.114;11.674;2023-06-04T13:51:35;2.40;;;0.90;;
60730;SDS011;46580;52.114;11.674;2023-06-04T13:54:01;1.63;;;0.70;;
60730;SDS011;46580;52.114;11.674;2023-06-04T13:56:26;1.30;;;0.63;;
60730;SDS011;46580;52.114;11.674;2023-06-04T13:58:55;1.47;;;0.60;;
60730;SDS011;46580;52.114;11.674;2023-06-04T14:01:20;2.77;;;0.93;;
60730;SDS011;46580;52.114;11.674;2023-06-04T14:03:45;3.37;;;0.80;;
60730;SDS011;46580;52.114;11.674;2023-06-04T14:06:11;1.33;;;0.80;;
60730;SDS011;46580;52.114;11.674;2023-06-04T14:08:36;5.53;;;0.80;;
60730;SDS011;46580;52.114;11.674;2023-06-04T14:11:02;1.40;;;0.77;;
60730;SDS011;46580;52.114;11.674;2023-06-04T14:13:27;4.87;;;1.00;;
60730;SDS011;46580;52.114;11.674;2023-06-04T14:15:52;2.40;;;1.20;;
60730;SDS011;46580;52.114;11.674;2023-06-04T14:18:20;2.50;;;1.10;;
60730;SDS011;46580;52.114;11.674;2023-06-04T14:20:45;2.70;;;0.80;;
60730;SDS011;46580;52.114;11.674;2023-06-04T14:23:11;3.03;;;1.00;;
60730;SDS011;46580;52.114;11.674;2023-06-04T14:25:39;1.40;;;0.70;;
60730;SDS011;46580;52.114;11.674;2023-06-04T14:28:04;1.00;;;0.73;;
60730;SDS011;46580;52.114;11.674;2023-06-04T14:30:30;1.33;;;0.60;;
60730;SDS011;46580;52.114;11.674;2023-06-04T14:32:55;1.57;;;1.03;;
60730;SDS011;46580;52.114;11.674;2023-06-04T14:35:22;1.93;;;0.93;;
60730;SDS011;46580;52.114;11.674;2023-06-04T14:37:47;5.93;;;0.97;;